SIA335 LFPG-WSSS
Flight info
| Callsign | SIA335 |
|---|---|
| Flight time | N/A |
| Altitude | 33000 |
| Route | LANVI DCT BEGAR DCT TRA DCT GAMSA DCT UMVEG DCT DIMLO DCT SOGMO DCT MOPUG DCT LUGEB DCT UDROS DCT CRM UM11 TEMEL/N0481F350 UM11 TBN UP146 YAVUZ UB374 INDUR N449 SULEL M747 BODKA P130 MAMED B449 RANAH L750 ZB G202 RK P628 IBANI/N0495F370 L510 AGEGA/N0485F390 L510 GIVAL DCT VPL Y503 RINBA Y507 MAKNA Y511 TOPOR A464 ARAMA DCT TEBUN TEBUN1A |
| Aircraft | B77W/H-SDE1E2E3FGHIJ4J5M1P2RWXYZ/LB1D1 |
Departure
| Time | 2026-05-01 08:11 |
|---|---|
| Airport | Charles de Gaulle International Airport (LFPG) |
Arrival
| Time | N/A |
|---|---|
| Airport | Singapore Changi Airport (WSSS) |
| Time | Latitude | Longitude | Altitude | Speed | Heading |
|---|---|---|---|---|---|
| 2026-05-01 07:43 | 49.00182 | 2.55822 | 359 ft | 0 kts | 63° |
| 2026-05-01 07:57 | 49.00182 | 2.55821 | 359 ft | 0 kts | 63° |
| 2026-05-01 08:01 | 49.00172 | 2.55794 | 366 ft | 4 kts | 61° |
| 2026-05-01 08:01 | 49.00160 | 2.55760 | 368 ft | 2 kts | 61° |
| 2026-05-01 08:01 | 49.00151 | 2.55726 | 367 ft | 4 kts | 99° |
| 2026-05-01 08:02 | 49.00189 | 2.55705 | 361 ft | 4 kts | 174° |
| 2026-05-01 08:02 | 49.00200 | 2.55703 | 361 ft | 0 kts | 164° |
| 2026-05-01 08:06 | 49.00173 | 2.55715 | 368 ft | 11 kts | 164° |
| 2026-05-01 08:06 | 49.00061 | 2.55698 | 362 ft | 10 kts | 263° |
| 2026-05-01 08:07 | 48.99984 | 2.55441 | 367 ft | 12 kts | 233° |
| 2026-05-01 08:07 | 48.99846 | 2.55436 | 367 ft | 10 kts | 155° |
| 2026-05-01 08:08 | 48.99780 | 2.55456 | 366 ft | 10 kts | 164° |
| 2026-05-01 08:08 | 48.99746 | 2.55628 | 362 ft | 9 kts | 83° |
| 2026-05-01 08:09 | 48.99733 | 2.55785 | 367 ft | 7 kts | 140° |
| 2026-05-01 08:09 | 48.99685 | 2.55815 | 366 ft | 8 kts | 167° |
| 2026-05-01 08:09 | 48.99626 | 2.55834 | 365 ft | 12 kts | 161° |
| 2026-05-01 08:10 | 48.99614 | 2.56114 | 367 ft | 49 kts | 86° |
| 2026-05-01 08:10 | 48.99775 | 2.59023 | 433 ft | 210 kts | 84° |
| 2026-05-01 08:11 | 49.00046 | 2.63617 | 2501 ft | 228 kts | 88° |
| 2026-05-01 08:11 | 49.00296 | 2.68756 | 3456 ft | 262 kts | 87° |
| 2026-05-01 08:12 | 49.00583 | 2.74382 | 5016 ft | 268 kts | 87° |
| 2026-05-01 08:12 | 49.00724 | 2.77235 | 5803 ft | 271 kts | 89° |
| 2026-05-01 08:12 | 49.00304 | 2.82926 | 7182 ft | 275 kts | 102° |
| 2026-05-01 08:13 | 48.99960 | 2.85701 | 7912 ft | 277 kts | 102° |
| 2026-05-01 08:13 | 48.99626 | 2.88595 | 8630 ft | 280 kts | 102° |
| 2026-05-01 08:13 | 48.98986 | 2.94503 | 10076 ft | 286 kts | 100° |
| 2026-05-01 08:14 | 48.98689 | 2.97506 | 10660 ft | 292 kts | 99° |
| 2026-05-01 08:14 | 48.98416 | 3.00675 | 10888 ft | 314 kts | 98° |
| 2026-05-01 08:14 | 48.98136 | 3.04089 | 11089 ft | 337 kts | 98° |
| 2026-05-01 08:14 | 48.97837 | 3.07737 | 11271 ft | 359 kts | 98° |
| 2026-05-01 08:15 | 48.97521 | 3.11574 | 11812 ft | 369 kts | 98° |
| 2026-05-01 08:15 | 48.96866 | 3.19438 | 13301 ft | 379 kts | 98° |
| 2026-05-01 08:15 | 48.96530 | 3.23433 | 14155 ft | 381 kts | 99° |
| 2026-05-01 08:16 | 48.96188 | 3.27442 | 14875 ft | 384 kts | 99° |
| 2026-05-01 08:16 | 48.95840 | 3.31502 | 15586 ft | 388 kts | 99° |
| 2026-05-01 08:16 | 48.95488 | 3.35591 | 16287 ft | 392 kts | 99° |
| 2026-05-01 08:16 | 48.95132 | 3.39717 | 16968 ft | 396 kts | 99° |
| 2026-05-01 08:17 | 48.94771 | 3.43889 | 17638 ft | 400 kts | 99° |
| 2026-05-01 08:17 | 48.94404 | 3.48106 | 18313 ft | 404 kts | 100° |
| 2026-05-01 08:17 | 48.94031 | 3.52364 | 18929 ft | 408 kts | 99° |
| 2026-05-01 08:17 | 48.93668 | 3.56669 | 19285 ft | 411 kts | 98° |
| 2026-05-01 08:18 | 48.93400 | 3.61001 | 19259 ft | 412 kts | 97° |
| 2026-05-01 08:18 | 48.92985 | 3.69696 | 19260 ft | 411 kts | 96° |
| 2026-05-01 08:19 | 48.92558 | 3.78354 | 19273 ft | 411 kts | 96° |
| 2026-05-01 08:19 | 48.92333 | 3.82633 | 19267 ft | 411 kts | 97° |
| 2026-05-01 08:19 | 48.92099 | 3.86966 | 19266 ft | 411 kts | 97° |
| 2026-05-01 08:19 | 48.91862 | 3.91299 | 19264 ft | 411 kts | 97° |
| 2026-05-01 08:20 | 48.91622 | 3.95627 | 19272 ft | 411 kts | 97° |
| 2026-05-01 08:20 | 48.91382 | 3.99949 | 19272 ft | 411 kts | 97° |
| 2026-05-01 08:20 | 48.91139 | 4.04283 | 19282 ft | 412 kts | 97° |
| 2026-05-01 08:20 | 48.90893 | 4.08646 | 19775 ft | 416 kts | 97° |
| 2026-05-01 08:21 | 48.90646 | 4.13023 | 20499 ft | 415 kts | 97° |
| 2026-05-01 08:21 | 48.90397 | 4.17392 | 21174 ft | 417 kts | 97° |
| 2026-05-01 08:21 | 48.90087 | 4.21770 | 21707 ft | 417 kts | 103° |
| 2026-05-01 08:21 | 48.89114 | 4.25916 | 22130 ft | 417 kts | 121° |
| 2026-05-01 08:22 | 48.87605 | 4.29669 | 22539 ft | 420 kts | 122° |
| 2026-05-01 08:22 | 48.86122 | 4.33521 | 23083 ft | 424 kts | 121° |
| 2026-05-01 08:22 | 48.84672 | 4.37428 | 23704 ft | 425 kts | 120° |
| 2026-05-01 08:22 | 48.83228 | 4.41370 | 24126 ft | 430 kts | 120° |
| 2026-05-01 08:23 | 48.81769 | 4.45369 | 24563 ft | 434 kts | 120° |
| 2026-05-01 08:23 | 48.80306 | 4.49372 | 25034 ft | 436 kts | 120° |
| 2026-05-01 08:23 | 48.78829 | 4.53401 | 25502 ft | 438 kts | 120° |
| 2026-05-01 08:23 | 48.77342 | 4.57443 | 25938 ft | 441 kts | 120° |
| 2026-05-01 08:24 | 48.75840 | 4.61516 | 26356 ft | 444 kts | 120° |
| 2026-05-01 08:24 | 48.74326 | 4.65611 | 26779 ft | 446 kts | 120° |
| 2026-05-01 08:24 | 48.72801 | 4.69728 | 27193 ft | 449 kts | 120° |
| 2026-05-01 08:24 | 48.71271 | 4.73851 | 27601 ft | 452 kts | 120° |
| 2026-05-01 08:25 | 48.69726 | 4.78008 | 27990 ft | 454 kts | 120° |
| 2026-05-01 08:25 | 48.68164 | 4.82203 | 28288 ft | 459 kts | 120° |
| 2026-05-01 08:25 | 48.66591 | 4.86423 | 28562 ft | 463 kts | 120° |
| 2026-05-01 08:25 | 48.65005 | 4.90671 | 28933 ft | 465 kts | 120° |
| 2026-05-01 08:26 | 48.63414 | 4.94926 | 29296 ft | 466 kts | 120° |
| 2026-05-01 08:26 | 48.61814 | 4.99197 | 29650 ft | 468 kts | 120° |
| 2026-05-01 08:26 | 48.60203 | 5.03491 | 29960 ft | 470 kts | 120° |
| 2026-05-01 08:26 | 48.58589 | 5.07784 | 30302 ft | 471 kts | 120° |
| 2026-05-01 08:27 | 48.56973 | 5.12079 | 30687 ft | 469 kts | 120° |
| 2026-05-01 08:27 | 48.55363 | 5.16349 | 31073 ft | 468 kts | 120° |
| 2026-05-01 08:27 | 48.53751 | 5.20618 | 31426 ft | 467 kts | 120° |
| 2026-05-01 08:27 | 48.52140 | 5.24878 | 31678 ft | 468 kts | 120° |
| 2026-05-01 08:28 | 48.50525 | 5.29141 | 32024 ft | 467 kts | 120° |
| 2026-05-01 08:28 | 48.48914 | 5.33385 | 32389 ft | 466 kts | 120° |
| 2026-05-01 08:28 | 48.47305 | 5.37619 | 32732 ft | 465 kts | 120° |
| 2026-05-01 08:28 | 48.45698 | 5.41839 | 33023 ft | 464 kts | 120° |
| 2026-05-01 08:29 | 48.44089 | 5.46061 | 33208 ft | 467 kts | 120° |
| 2026-05-01 08:29 | 48.40843 | 5.54553 | 33257 ft | 468 kts | 120° |
| 2026-05-01 08:30 | 48.37610 | 5.62986 | 33256 ft | 464 kts | 120° |
| 2026-05-01 08:30 | 48.34375 | 5.71403 | 33293 ft | 466 kts | 120° |
| 2026-05-01 08:31 | 48.31116 | 5.79851 | 33290 ft | 467 kts | 120° |
| 2026-05-01 08:31 | 48.27872 | 5.88245 | 33303 ft | 468 kts | 120° |
| 2026-05-01 08:32 | 48.24602 | 5.96702 | 33298 ft | 468 kts | 120° |
| 2026-05-01 08:32 | 48.21335 | 6.05142 | 33297 ft | 468 kts | 120° |
| 2026-05-01 08:33 | 48.18067 | 6.13581 | 33295 ft | 468 kts | 120° |
| 2026-05-01 08:33 | 48.14801 | 6.22008 | 33294 ft | 468 kts | 120° |
| 2026-05-01 08:34 | 48.11536 | 6.30427 | 33287 ft | 468 kts | 120° |
| 2026-05-01 08:34 | 48.08275 | 6.38830 | 33286 ft | 468 kts | 120° |
| 2026-05-01 08:35 | 48.05007 | 6.47245 | 33298 ft | 468 kts | 119° |
| 2026-05-01 08:35 | 48.01729 | 6.55682 | 33295 ft | 469 kts | 119° |
| 2026-05-01 08:36 | 47.98457 | 6.64096 | 33271 ft | 470 kts | 119° |
| 2026-05-01 08:36 | 47.95176 | 6.72530 | 33297 ft | 470 kts | 119° |
| 2026-05-01 08:37 | 47.91890 | 6.80967 | 33297 ft | 470 kts | 119° |
| 2026-05-01 08:37 | 47.88603 | 6.89401 | 33302 ft | 471 kts | 119° |
| 2026-05-01 08:38 | 47.85309 | 6.97847 | 33291 ft | 472 kts | 119° |
| 2026-05-01 08:38 | 47.82015 | 7.06287 | 33316 ft | 472 kts | 119° |
| 2026-05-01 08:39 | 47.78715 | 7.14740 | 33325 ft | 472 kts | 119° |
| 2026-05-01 08:39 | 47.75441 | 7.23119 | 33304 ft | 472 kts | 118° |
| 2026-05-01 08:40 | 47.70494 | 7.35781 | 33313 ft | 473 kts | 118° |
| 2026-05-01 08:40 | 47.67186 | 7.44239 | 33316 ft | 473 kts | 118° |
| 2026-05-01 08:41 | 47.63872 | 7.52708 | 33315 ft | 473 kts | 118° |
| 2026-05-01 08:41 | 47.60564 | 7.61153 | 33312 ft | 474 kts | 118° |
| 2026-05-01 08:42 | 47.57254 | 7.69604 | 33322 ft | 475 kts | 118° |
| 2026-05-01 08:42 | 47.53973 | 7.78088 | 33310 ft | 472 kts | 113° |
| 2026-05-01 08:43 | 47.52930 | 7.82648 | 33357 ft | 467 kts | 98° |
| 2026-05-01 08:43 | 47.52672 | 7.87428 | 33317 ft | 465 kts | 86° |
| 2026-05-01 08:43 | 47.53058 | 7.92160 | 33313 ft | 464 kts | 75° |
| 2026-05-01 08:43 | 47.54147 | 7.96604 | 33309 ft | 461 kts | 64° |
| 2026-05-01 08:44 | 47.56947 | 8.05110 | 33327 ft | 464 kts | 63° |
| 2026-05-01 08:44 | 47.59754 | 8.13804 | 33332 ft | 466 kts | 64° |
| 2026-05-01 08:45 | 47.62471 | 8.22525 | 33328 ft | 467 kts | 64° |
| 2026-05-01 08:45 | 47.65152 | 8.31209 | 33331 ft | 466 kts | 64° |
| 2026-05-01 08:46 | 47.67623 | 8.40058 | 33310 ft | 465 kts | 77° |
| 2026-05-01 08:46 | 47.67987 | 8.44818 | 33347 ft | 466 kts | 88° |
| 2026-05-01 08:46 | 47.67867 | 8.48019 | 33331 ft | 468 kts | 96° |
| 2026-05-01 08:47 | 47.67118 | 8.52772 | 33344 ft | 468 kts | 107° |
| 2026-05-01 08:47 | 47.66031 | 8.57329 | 33342 ft | 469 kts | 107° |
| 2026-05-01 08:47 | 47.63863 | 8.66440 | 33345 ft | 469 kts | 107° |
| 2026-05-01 08:48 | 47.61738 | 8.75585 | 33345 ft | 469 kts | 106° |
| 2026-05-01 08:48 | 47.59632 | 8.84748 | 33358 ft | 470 kts | 105° |
| 2026-05-01 08:49 | 47.57520 | 8.93934 | 33344 ft | 471 kts | 106° |
| 2026-05-01 08:49 | 47.55396 | 9.03126 | 33346 ft | 472 kts | 106° |
| 2026-05-01 08:50 | 47.53260 | 9.12321 | 33345 ft | 473 kts | 106° |
| 2026-05-01 08:50 | 47.51113 | 9.21518 | 33352 ft | 473 kts | 106° |
| 2026-05-01 08:51 | 47.48961 | 9.30706 | 33339 ft | 473 kts | 105° |
| 2026-05-01 08:51 | 47.46807 | 9.39865 | 33346 ft | 472 kts | 105° |
| 2026-05-01 08:52 | 47.44624 | 9.49101 | 33353 ft | 472 kts | 105° |
| 2026-05-01 08:52 | 47.42453 | 9.58260 | 33347 ft | 473 kts | 106° |
| 2026-05-01 08:53 | 47.40619 | 9.67517 | 33349 ft | 468 kts | 97° |
| 2026-05-01 08:53 | 47.39819 | 9.76986 | 33348 ft | 465 kts | 92° |
| 2026-05-01 08:54 | 47.39115 | 9.86464 | 33333 ft | 465 kts | 92° |
| 2026-05-01 08:54 | 47.38373 | 9.95989 | 33326 ft | 464 kts | 93° |
| 2026-05-01 08:55 | 47.37617 | 10.05404 | 33328 ft | 465 kts | 92° |
| 2026-05-01 08:55 | 47.36852 | 10.14826 | 33294 ft | 465 kts | 93° |
| 2026-05-01 08:56 | 47.36074 | 10.24281 | 33314 ft | 465 kts | 93° |
| 2026-05-01 08:56 | 47.35290 | 10.33733 | 33290 ft | 464 kts | 93° |
| 2026-05-01 08:57 | 47.34500 | 10.43145 | 33317 ft | 463 kts | 92° |
| 2026-05-01 08:57 | 47.33704 | 10.52568 | 33346 ft | 463 kts | 92° |
| 2026-05-01 08:58 | 47.32899 | 10.61995 | 33311 ft | 463 kts | 92° |
| 2026-05-01 08:58 | 47.32082 | 10.71466 | 33327 ft | 462 kts | 92° |
| 2026-05-01 08:59 | 47.31267 | 10.80802 | 33328 ft | 462 kts | 93° |
| 2026-05-01 08:59 | 47.30437 | 10.90239 | 33359 ft | 461 kts | 92° |
| 2026-05-01 09:00 | 47.29604 | 10.99602 | 33363 ft | 461 kts | 92° |
| 2026-05-01 09:00 | 47.28767 | 11.08948 | 33378 ft | 460 kts | 92° |
| 2026-05-01 09:01 | 47.27921 | 11.18298 | 33383 ft | 460 kts | 92° |
| 2026-05-01 09:01 | 47.27071 | 11.27610 | 33347 ft | 459 kts | 92° |
| 2026-05-01 09:02 | 47.26144 | 11.36825 | 33379 ft | 455 kts | 92° |
| 2026-05-01 09:02 | 47.25334 | 11.46063 | 33377 ft | 457 kts | 92° |
| 2026-05-01 09:03 | 47.24492 | 11.55363 | 33388 ft | 460 kts | 92° |
| 2026-05-01 09:03 | 47.23608 | 11.64700 | 33408 ft | 461 kts | 92° |
| 2026-05-01 09:04 | 47.22714 | 11.74028 | 33376 ft | 461 kts | 92° |
| 2026-05-01 09:04 | 47.21817 | 11.83347 | 33382 ft | 459 kts | 92° |
| 2026-05-01 09:05 | 47.20915 | 11.92613 | 33390 ft | 457 kts | 92° |
| 2026-05-01 09:05 | 47.20016 | 12.01875 | 33367 ft | 457 kts | 92° |
| 2026-05-01 09:06 | 47.19118 | 12.11092 | 33375 ft | 455 kts | 92° |
| 2026-05-01 09:06 | 47.18212 | 12.20303 | 33358 ft | 456 kts | 92° |
| 2026-05-01 09:07 | 47.17295 | 12.29538 | 33357 ft | 457 kts | 93° |
| 2026-05-01 09:07 | 47.16368 | 12.38790 | 33392 ft | 457 kts | 93° |
| 2026-05-01 09:08 | 47.15435 | 12.48013 | 33385 ft | 458 kts | 92° |
| 2026-05-01 09:08 | 47.14492 | 12.57265 | 33372 ft | 457 kts | 92° |
| 2026-05-01 09:09 | 47.13543 | 12.66494 | 33360 ft | 457 kts | 92° |
| 2026-05-01 09:09 | 47.12586 | 12.75761 | 33351 ft | 455 kts | 93° |
| 2026-05-01 09:10 | 47.11625 | 12.84943 | 33338 ft | 454 kts | 93° |
| 2026-05-01 09:10 | 47.10670 | 12.94038 | 33332 ft | 454 kts | 93° |
| 2026-05-01 09:11 | 47.09694 | 13.03243 | 33313 ft | 453 kts | 93° |
| 2026-05-01 09:11 | 47.08717 | 13.12381 | 33349 ft | 453 kts | 92° |
| 2026-05-01 09:12 | 47.07737 | 13.21529 | 33346 ft | 456 kts | 93° |
| 2026-05-01 09:12 | 47.06738 | 13.30706 | 33359 ft | 456 kts | 93° |
| 2026-05-01 09:13 | 47.05731 | 13.39879 | 33340 ft | 453 kts | 93° |
| 2026-05-01 09:13 | 47.04733 | 13.48927 | 33366 ft | 452 kts | 93° |
| 2026-05-01 09:14 | 47.03718 | 13.58069 | 33350 ft | 451 kts | 93° |
| 2026-05-01 09:14 | 47.02707 | 13.67105 | 33398 ft | 449 kts | 93° |
| 2026-05-01 09:15 | 47.01689 | 13.76134 | 33377 ft | 449 kts | 93° |
| 2026-05-01 09:15 | 47.00667 | 13.85151 | 33373 ft | 449 kts | 93° |
| 2026-05-01 09:16 | 46.99632 | 13.94190 | 33368 ft | 449 kts | 93° |
| 2026-05-01 09:17 | 46.98072 | 14.07709 | 33422 ft | 448 kts | 93° |
| 2026-05-01 09:17 | 46.96671 | 14.19724 | 33393 ft | 449 kts | 94° |
| 2026-05-01 09:18 | 46.94909 | 14.34671 | 33407 ft | 448 kts | 94° |
| 2026-05-01 09:19 | 46.93479 | 14.46672 | 33440 ft | 447 kts | 94° |
| 2026-05-01 09:20 | 46.91866 | 14.60081 | 33390 ft | 444 kts | 94° |
| 2026-05-01 09:21 | 46.89699 | 14.77894 | 33389 ft | 443 kts | 94° |
| 2026-05-01 09:21 | 46.88066 | 14.91153 | 33404 ft | 443 kts | 94° |
| 2026-05-01 09:22 | 46.85862 | 15.08852 | 33381 ft | 441 kts | 94° |
| 2026-05-01 09:23 | 46.84197 | 15.22058 | 33395 ft | 440 kts | 94° |
| 2026-05-01 09:24 | 46.82525 | 15.35199 | 33404 ft | 437 kts | 94° |
| 2026-05-01 09:25 | 46.80285 | 15.52602 | 33399 ft | 433 kts | 94° |
| 2026-05-01 09:26 | 46.78605 | 15.65525 | 33435 ft | 432 kts | 94° |
| 2026-05-01 09:26 | 46.76900 | 15.78518 | 33401 ft | 433 kts | 94° |
| 2026-05-01 09:27 | 46.75186 | 15.91455 | 33389 ft | 433 kts | 94° |
| 2026-05-01 09:28 | 46.74034 | 16.00088 | 33395 ft | 433 kts | 94° |
| 2026-05-01 09:28 | 46.72876 | 16.08704 | 33394 ft | 433 kts | 94° |
| 2026-05-01 09:29 | 46.71129 | 16.21623 | 33391 ft | 434 kts | 94° |
| 2026-05-01 09:30 | 46.69364 | 16.34562 | 33396 ft | 434 kts | 94° |
| 2026-05-01 09:30 | 46.67981 | 16.47525 | 33397 ft | 428 kts | 88° |
| 2026-05-01 09:31 | 46.67554 | 16.56156 | 33390 ft | 427 kts | 88° |
| 2026-05-01 09:32 | 46.66865 | 16.69056 | 33391 ft | 425 kts | 88° |
| 2026-05-01 09:32 | 46.66154 | 16.81913 | 33393 ft | 425 kts | 88° |
| 2026-05-01 09:33 | 46.65672 | 16.90488 | 33403 ft | 425 kts | 89° |
| 2026-05-01 09:34 | 46.64938 | 17.03352 | 33397 ft | 425 kts | 89° |
| 2026-05-01 09:34 | 46.64193 | 17.16142 | 33399 ft | 425 kts | 89° |
| 2026-05-01 09:35 | 46.63427 | 17.29043 | 33409 ft | 425 kts | 89° |
| 2026-05-01 09:36 | 46.62909 | 17.37615 | 33403 ft | 426 kts | 89° |
| 2026-05-01 09:36 | 46.62386 | 17.46194 | 33390 ft | 426 kts | 89° |
| 2026-05-01 09:37 | 46.61859 | 17.54710 | 33390 ft | 426 kts | 89° |
| 2026-05-01 09:37 | 46.61040 | 17.67638 | 33409 ft | 427 kts | 90° |
| 2026-05-01 09:38 | 46.59399 | 17.80420 | 33385 ft | 431 kts | 94° |
| 2026-05-01 09:39 | 46.57656 | 17.93240 | 33385 ft | 431 kts | 94° |
| 2026-05-01 09:39 | 46.56495 | 18.01781 | 33370 ft | 431 kts | 94° |
| 2026-05-01 09:40 | 46.54744 | 18.14585 | 33386 ft | 431 kts | 95° |
| 2026-05-01 09:41 | 46.53564 | 18.23144 | 33370 ft | 432 kts | 95° |
| 2026-05-01 09:41 | 46.51781 | 18.35970 | 33374 ft | 432 kts | 95° |
| 2026-05-01 09:42 | 46.50586 | 18.44516 | 33403 ft | 432 kts | 95° |
| 2026-05-01 09:43 | 46.48172 | 18.61620 | 33380 ft | 432 kts | 95° |
| 2026-05-01 09:43 | 46.46958 | 18.70147 | 33369 ft | 432 kts | 95° |
| 2026-05-01 09:44 | 46.45123 | 18.82942 | 33399 ft | 431 kts | 95° |
| 2026-05-01 09:45 | 46.43893 | 18.91468 | 33373 ft | 433 kts | 95° |
| 2026-05-01 09:45 | 46.42028 | 19.04301 | 33371 ft | 434 kts | 95° |
| 2026-05-01 09:46 | 46.40774 | 19.12863 | 33366 ft | 435 kts | 95° |
| 2026-05-01 09:46 | 46.39512 | 19.21438 | 33403 ft | 436 kts | 95° |
| 2026-05-01 09:47 | 46.38238 | 19.30052 | 33375 ft | 438 kts | 95° |
| 2026-05-01 09:47 | 46.36954 | 19.38677 | 33369 ft | 439 kts | 95° |
| 2026-05-01 09:48 | 46.35659 | 19.47326 | 33363 ft | 440 kts | 95° |
| 2026-05-01 09:48 | 46.34357 | 19.55972 | 33365 ft | 439 kts | 96° |
| 2026-05-01 09:49 | 46.33049 | 19.64618 | 33359 ft | 441 kts | 96° |
| 2026-05-01 09:49 | 46.31731 | 19.73278 | 33359 ft | 442 kts | 96° |
| 2026-05-01 09:50 | 46.30404 | 19.81958 | 33371 ft | 442 kts | 96° |
| 2026-05-01 09:50 | 46.29066 | 19.90651 | 33357 ft | 443 kts | 96° |
| 2026-05-01 09:51 | 46.27722 | 19.99343 | 33358 ft | 443 kts | 96° |
| 2026-05-01 09:51 | 46.26371 | 20.08032 | 33358 ft | 443 kts | 96° |
| 2026-05-01 09:52 | 46.25014 | 20.16711 | 33356 ft | 443 kts | 96° |
| 2026-05-01 09:52 | 46.23649 | 20.25395 | 33348 ft | 443 kts | 96° |
| 2026-05-01 09:53 | 46.22282 | 20.34052 | 33350 ft | 442 kts | 96° |
| 2026-05-01 09:53 | 46.20904 | 20.42740 | 33356 ft | 444 kts | 97° |
| 2026-05-01 09:54 | 46.19751 | 20.49969 | 33353 ft | 446 kts | 97° |
| 2026-05-01 09:54 | 46.18350 | 20.58708 | 33349 ft | 447 kts | 97° |
| 2026-05-01 09:55 | 46.16942 | 20.67452 | 33344 ft | 448 kts | 97° |
| 2026-05-01 09:55 | 46.15066 | 20.76079 | 33359 ft | 456 kts | 105° |
| 2026-05-01 09:56 | 46.12729 | 20.84679 | 33344 ft | 458 kts | 105° |
| 2026-05-01 09:56 | 46.10408 | 20.93257 | 33348 ft | 459 kts | 105° |
| 2026-05-01 09:57 | 46.08095 | 21.01843 | 33342 ft | 460 kts | 105° |
| 2026-05-01 09:57 | 46.05781 | 21.10427 | 33365 ft | 460 kts | 105° |
| 2026-05-01 09:58 | 46.03455 | 21.19034 | 33350 ft | 461 kts | 105° |
| 2026-05-01 09:58 | 46.01120 | 21.27638 | 33345 ft | 462 kts | 105° |
| 2026-05-01 09:59 | 45.98795 | 21.36175 | 33346 ft | 462 kts | 105° |
| 2026-05-01 09:59 | 45.96447 | 21.44763 | 33367 ft | 462 kts | 106° |
| 2026-05-01 10:00 | 45.94086 | 21.53379 | 33342 ft | 465 kts | 107° |
| 2026-05-01 10:00 | 45.91698 | 21.62056 | 33332 ft | 469 kts | 107° |
| 2026-05-01 10:01 | 45.89287 | 21.70778 | 33333 ft | 471 kts | 107° |
| 2026-05-01 10:01 | 45.86860 | 21.79525 | 33341 ft | 473 kts | 107° |
| 2026-05-01 10:02 | 45.84413 | 21.88315 | 33328 ft | 475 kts | 107° |
| 2026-05-01 10:02 | 45.81954 | 21.97118 | 33319 ft | 476 kts | 107° |
| 2026-05-01 10:03 | 45.79483 | 22.05928 | 33318 ft | 476 kts | 107° |
| 2026-05-01 10:03 | 45.77008 | 22.14724 | 33339 ft | 476 kts | 108° |
| 2026-05-01 10:04 | 45.74523 | 22.23523 | 33321 ft | 477 kts | 108° |
| 2026-05-01 10:04 | 45.72031 | 22.32315 | 33315 ft | 477 kts | 108° |
| 2026-05-01 10:05 | 45.69531 | 22.41103 | 33309 ft | 477 kts | 108° |
| 2026-05-01 10:05 | 45.67026 | 22.49883 | 33323 ft | 478 kts | 108° |
| 2026-05-01 10:06 | 45.64500 | 22.58696 | 33315 ft | 480 kts | 108° |
| 2026-05-01 10:06 | 45.61959 | 22.67537 | 33302 ft | 482 kts | 108° |
| 2026-05-01 10:07 | 45.59386 | 22.76456 | 33309 ft | 483 kts | 109° |
| 2026-05-01 10:07 | 45.56833 | 22.85269 | 33302 ft | 484 kts | 109° |
| 2026-05-01 10:08 | 45.52938 | 22.98657 | 33299 ft | 486 kts | 109° |
| 2026-05-01 10:09 | 45.50338 | 23.07554 | 33291 ft | 486 kts | 109° |
| 2026-05-01 10:09 | 45.47732 | 23.16439 | 33301 ft | 486 kts | 110° |
| 2026-05-01 10:10 | 45.45121 | 23.25312 | 33294 ft | 486 kts | 110° |
| 2026-05-01 10:10 | 45.41199 | 23.38577 | 33295 ft | 487 kts | 110° |
| 2026-05-01 10:11 | 45.38549 | 23.47500 | 33292 ft | 487 kts | 110° |
| 2026-05-01 10:11 | 45.35922 | 23.56320 | 33301 ft | 488 kts | 110° |
| 2026-05-01 10:12 | 45.33264 | 23.65209 | 33284 ft | 488 kts | 110° |
| 2026-05-01 10:13 | 45.29271 | 23.78502 | 33298 ft | 488 kts | 110° |
| 2026-05-01 10:13 | 45.26601 | 23.87356 | 33295 ft | 488 kts | 110° |
| 2026-05-01 10:14 | 45.22572 | 24.00654 | 33295 ft | 489 kts | 111° |
| 2026-05-01 10:14 | 45.19873 | 24.09522 | 33297 ft | 490 kts | 111° |
| 2026-05-01 10:15 | 45.17164 | 24.18394 | 33299 ft | 491 kts | 111° |
| 2026-05-01 10:15 | 45.14436 | 24.27294 | 33303 ft | 493 kts | 111° |
| 2026-05-01 10:16 | 45.11696 | 24.36203 | 33298 ft | 494 kts | 111° |
| 2026-05-01 10:17 | 45.07569 | 24.49564 | 33312 ft | 494 kts | 111° |
| 2026-05-01 10:17 | 45.03437 | 24.62871 | 33300 ft | 495 kts | 112° |
| 2026-05-01 10:18 | 44.99269 | 24.76230 | 33298 ft | 496 kts | 112° |
| 2026-05-01 10:19 | 44.96478 | 24.85133 | 33305 ft | 496 kts | 112° |
| 2026-05-01 10:19 | 44.93679 | 24.94032 | 33304 ft | 496 kts | 112° |
| 2026-05-01 10:20 | 44.89466 | 25.07367 | 33301 ft | 496 kts | 112° |
| 2026-05-01 10:20 | 44.86647 | 25.16256 | 33309 ft | 496 kts | 112° |
| 2026-05-01 10:21 | 44.82404 | 25.29573 | 33305 ft | 496 kts | 113° |
| 2026-05-01 10:22 | 44.78150 | 25.42858 | 33306 ft | 496 kts | 113° |
| 2026-05-01 10:23 | 44.73878 | 25.56129 | 33310 ft | 496 kts | 113° |
| 2026-05-01 10:23 | 44.69588 | 25.69391 | 33314 ft | 497 kts | 113° |